Terminal Aerodrome Forecast
Issued by NWS

Home | Current Version | Previous Version | Text Only | Print | Product List | Glossary Off
Versions: 1 2 3 4 5 6 7 8 9 10 11 12 13 14 15 16 17 18 19 20 21 22 23 24

000
FTUS43 KLOT 180307 AAA
TAFMDW
TAF AMD
KMDW 180307Z 1803/1824 21010KT P6SM FEW250
     FM180500 23009KT P6SM SKC WS008/25045KT
     FM181000 25008KT P6SM FEW250
     FM182300 33005KT P6SM FEW250=

USA.gov is the U.S. government's official web portal to all federal, state and local government web resources and services.